createdAt,value
2018-12-24T00:00:17.758Z,6.95
2018-12-24T00:00:48.879Z,7.58
2018-12-24T00:01:19.983Z,8.50
2018-12-24T00:01:51.134Z,7.70
2018-12-24T00:02:22.232Z,6.62
2018-12-24T00:02:53.338Z,7.95
2018-12-24T00:03:24.450Z,7.10
2018-12-24T00:04:36.901Z,6.90
2018-12-24T00:05:08.053Z,7.87
2018-12-24T00:05:39.212Z,8.40
2018-12-24T00:06:10.353Z,6.42
2018-12-24T00:06:41.501Z,6.85
2018-12-24T00:07:12.647Z,7.85
2018-12-24T00:07:43.839Z,7.87
2018-12-24T00:08:15.190Z,7.50
2018-12-24T00:08:46.383Z,8.05
2018-12-24T00:09:17.533Z,8.70
2018-12-24T00:09:48.689Z,6.85
2018-12-24T00:10:19.849Z,7.17
2018-12-24T00:10:51.007Z,8.33
2018-12-24T00:11:22.157Z,7.72
2018-12-24T00:11:53.305Z,8.28
2018-12-24T00:12:24.498Z,8.05
2018-12-24T00:12:55.649Z,7.70
2018-12-24T00:13:26.797Z,6.83
2018-12-24T00:13:57.986Z,7.97
2018-12-24T00:14:29.194Z,8.18
2018-12-24T00:15:00.352Z,7.17
2018-12-24T00:15:31.495Z,6.92
2018-12-24T00:16:02.642Z,6.75
2018-12-24T00:16:33.790Z,7.87
2018-12-24T00:17:05.011Z,8.25
2018-12-24T00:17:36.158Z,7.87
2018-12-24T00:18:07.340Z,8.58
2018-12-24T00:18:38.477Z,9.30
2018-12-24T00:19:09.661Z,9.15
2018-12-24T00:19:40.801Z,9.95
2018-12-24T00:20:11.954Z,10.45
2018-12-24T00:20:43.102Z,10.95
2018-12-24T00:21:14.246Z,11.18
2018-12-24T00:21:45.393Z,11.95
2018-12-24T00:22:16.563Z,11.05
2018-12-24T00:22:47.755Z,11.57
2018-12-24T00:23:18.918Z,12.03
2018-12-24T00:23:50.066Z,8.78
2018-12-24T00:24:21.224Z,10.20
2018-12-24T00:24:52.367Z,10.93
2018-12-24T00:25:23.516Z,10.75
2018-12-24T00:25:54.664Z,10.85
2018-12-24T00:26:25.860Z,10.88
2018-12-24T00:26:57.007Z,10.45
2018-12-24T00:27:28.241Z,9.40
2018-12-24T00:27:59.387Z,9.25
2018-12-24T00:28:30.542Z,9.58
2018-12-24T00:29:01.692Z,11.15
2018-12-24T00:29:32.841Z,10.15
2018-12-24T00:30:04.028Z,11.22
2018-12-24T00:30:35.140Z,9.20
2018-12-24T00:31:06.286Z,10.82
2018-12-24T00:31:37.491Z,10.00
2018-12-24T00:32:08.643Z,10.20
2018-12-24T00:32:39.794Z,10.48
2018-12-24T00:33:10.946Z,11.88
2018-12-24T00:33:42.096Z,9.40
2018-12-24T00:34:15.567Z,10.30
2018-12-24T00:34:46.722Z,12.03
2018-12-24T00:35:17.869Z,11.18
2018-12-24T00:35:49.015Z,9.65
2018-12-24T00:36:20.166Z,10.98
2018-12-24T00:36:51.363Z,10.82
2018-12-24T00:37:22.524Z,12.20
2018-12-24T00:37:53.674Z,9.80
2018-12-24T00:38:24.874Z,9.98
2018-12-24T00:38:56.072Z,10.88
2018-12-24T00:39:27.219Z,10.63
2018-12-24T00:39:58.374Z,10.88
2018-12-24T00:40:29.530Z,10.95
2018-12-24T00:41:00.693Z,11.80
2018-12-24T00:41:31.848Z,10.30
2018-12-24T00:42:02.996Z,10.93
2018-12-24T00:42:34.182Z,10.95
2018-12-24T00:43:05.347Z,10.35
2018-12-24T00:43:36.500Z,10.65
2018-12-24T00:44:07.643Z,10.40
2018-12-24T00:44:38.801Z,11.33
2018-12-24T00:45:09.955Z,10.95
2018-12-24T00:45:41.097Z,10.90
2018-12-24T00:46:12.252Z,11.93
2018-12-24T00:46:43.393Z,10.95
2018-12-24T00:47:14.550Z,10.58
2018-12-24T00:47:45.875Z,12.20
2018-12-24T00:48:17.100Z,11.80
2018-12-24T00:48:48.260Z,11.48
2018-12-24T00:49:19.393Z,11.40
2018-12-24T00:49:50.544Z,11.95
2018-12-24T00:50:21.746Z,14.33
2018-12-24T00:50:52.895Z,13.72
2018-12-24T00:51:24.059Z,14.30
2018-12-24T00:51:55.216Z,14.10
2018-12-24T00:52:26.363Z,15.23
2018-12-24T00:52:57.554Z,13.95
2018-12-24T00:53:28.711Z,15.58
2018-12-24T00:53:59.936Z,13.55
2018-12-24T00:54:31.094Z,13.85
2018-12-24T00:55:02.248Z,14.28
2018-12-24T00:55:33.398Z,14.20
2018-12-24T00:56:04.551Z,16.07
2018-12-24T00:56:35.695Z,14.95
2018-12-24T00:57:06.849Z,15.93
2018-12-24T00:57:38.000Z,15.35
2018-12-24T00:58:09.150Z,15.45
2018-12-24T00:58:40.408Z,14.18
2018-12-24T00:59:11.563Z,16.05
2018-12-24T00:59:42.721Z,15.85
2018-12-24T01:00:13.861Z,16.87
2018-12-24T01:00:45.003Z,18.25
2018-12-24T01:01:16.213Z,18.62
2018-12-24T01:01:48.909Z,19.02
2018-12-24T01:02:20.177Z,16.77
2018-12-24T01:02:51.325Z,16.85
2018-12-24T01:03:22.472Z,16.25
2018-12-24T01:03:53.613Z,16.42
2018-12-24T01:04:24.813Z,18.45
2018-12-24T01:04:56.116Z,18.17
2018-12-24T01:05:27.223Z,15.10
2018-12-24T01:05:58.358Z,19.62
2018-12-24T01:06:29.554Z,15.10
2018-12-24T01:07:00.698Z,17.35
2018-12-24T01:07:31.845Z,15.23
2018-12-24T01:08:02.988Z,16.17
2018-12-24T01:08:34.139Z,16.23
2018-12-24T01:09:05.296Z,14.63
2018-12-24T01:09:36.441Z,13.62
2018-12-24T01:10:07.597Z,15.45
2018-12-24T01:10:38.742Z,16.90
2018-12-24T01:11:09.947Z,16.30
2018-12-24T01:11:41.078Z,16.10
2018-12-24T01:12:12.224Z,19.02
2018-12-24T01:12:43.371Z,18.67
2018-12-24T01:13:14.520Z,18.82
2018-12-24T01:13:45.671Z,16.62
2018-12-24T01:14:16.827Z,17.35
2018-12-24T01:14:47.991Z,17.37
2018-12-24T01:15:19.151Z,16.67
2018-12-24T01:15:50.293Z,19.40
2018-12-24T01:16:21.486Z,21.17
2018-12-24T01:16:52.642Z,16.48
2018-12-24T01:17:23.783Z,15.55
2018-12-24T01:17:54.945Z,16.12
2018-12-24T01:18:26.091Z,16.80
2018-12-24T01:18:57.243Z,17.45
2018-12-24T01:19:28.417Z,16.70
2018-12-24T01:19:59.556Z,16.52
2018-12-24T01:20:30.703Z,16.55
2018-12-24T01:21:01.898Z,16.25
2018-12-24T01:21:33.048Z,15.48
2018-12-24T01:22:04.191Z,15.50
2018-12-24T01:22:35.346Z,14.60
2018-12-24T01:23:06.571Z,14.20
2018-12-24T01:23:37.713Z,16.12
2018-12-24T01:24:08.854Z,15.38
2018-12-24T01:24:40.159Z,15.35
2018-12-24T01:25:11.306Z,17.57
2018-12-24T01:25:42.449Z,15.65
2018-12-24T01:26:13.603Z,17.87
2018-12-24T01:26:44.743Z,17.10
2018-12-24T01:27:15.897Z,20.25
2018-12-24T01:27:47.043Z,15.80
2018-12-24T01:28:18.306Z,18.17
2018-12-24T01:28:49.423Z,16.23
2018-12-24T01:29:20.567Z,16.40
2018-12-24T01:29:51.760Z,18.60
2018-12-24T01:30:22.913Z,18.77
2018-12-24T01:30:54.072Z,18.10
2018-12-24T01:31:25.220Z,17.48
2018-12-24T01:31:56.375Z,17.30
2018-12-24T01:32:27.528Z,17.20
2018-12-24T01:32:58.723Z,17.52
2018-12-24T01:33:29.923Z,16.32
2018-12-24T01:34:01.066Z,14.65
2018-12-24T01:34:32.213Z,15.45
2018-12-24T01:35:03.363Z,14.78
2018-12-24T01:35:34.511Z,14.30
2018-12-24T01:36:05.699Z,14.35
2018-12-24T01:36:36.842Z,14.50
2018-12-24T01:37:07.988Z,12.88
2018-12-24T01:37:39.142Z,17.90
2018-12-24T01:38:10.291Z,17.62
2018-12-24T01:38:41.479Z,15.03
2018-12-24T01:39:12.622Z,15.58
2018-12-24T01:39:43.809Z,13.38
2018-12-24T01:40:14.921Z,15.48
2018-12-24T01:40:46.145Z,15.28
2018-12-24T01:41:17.282Z,15.00
2018-12-24T01:41:48.427Z,14.35
2018-12-24T01:42:19.577Z,13.30
2018-12-24T01:42:50.776Z,13.15
2018-12-24T01:43:21.931Z,13.05
2018-12-24T01:43:53.066Z,14.93
2018-12-24T01:44:24.220Z,14.10
2018-12-24T01:44:57.447Z,14.30
2018-12-24T01:45:28.678Z,14.50
2018-12-24T01:46:02.874Z,12.50
2018-12-24T01:46:34.029Z,13.08
2018-12-24T01:47:05.175Z,12.85
2018-12-24T01:47:36.376Z,12.05
2018-12-24T01:48:07.518Z,11.10
2018-12-24T01:48:38.664Z,11.75
2018-12-24T01:49:09.821Z,10.95
2018-12-24T01:49:40.987Z,11.08
2018-12-24T01:50:12.112Z,12.18
2018-12-24T01:50:43.263Z,11.90
2018-12-24T01:51:14.410Z,10.15
2018-12-24T01:51:45.553Z,8.65
2018-12-24T01:52:16.737Z,9.88
2018-12-24T01:52:47.886Z,10.50
2018-12-24T01:53:19.028Z,11.33
2018-12-24T01:53:50.180Z,10.95
2018-12-24T01:54:21.412Z,10.45
2018-12-24T01:54:52.543Z,13.08
2018-12-24T01:55:23.710Z,14.45
2018-12-24T01:55:54.861Z,11.35
2018-12-24T01:56:26.016Z,8.58
2018-12-24T01:56:57.202Z,10.23
2018-12-24T01:57:28.381Z,10.78
2018-12-24T01:57:59.520Z,10.55
2018-12-24T01:58:30.663Z,9.80
2018-12-24T01:59:01.810Z,11.35
2018-12-24T01:59:32.966Z,11.40
2018-12-24T02:00:04.099Z,9.50
2018-12-24T02:00:35.284Z,10.53
2018-12-24T02:01:06.434Z,10.30
2018-12-24T02:01:37.586Z,8.33
2018-12-24T02:02:08.734Z,8.53
2018-12-24T02:02:39.936Z,9.88
2018-12-24T02:03:11.091Z,10.53
2018-12-24T02:03:42.247Z,11.63
2018-12-24T02:04:13.376Z,9.85
2018-12-24T02:04:44.523Z,10.50
2018-12-24T02:05:15.677Z,12.25
2018-12-24T02:05:46.824Z,9.75
2018-12-24T02:06:17.968Z,10.38
2018-12-24T02:06:49.183Z,10.48
2018-12-24T02:07:20.348Z,11.73
2018-12-24T02:07:51.526Z,11.43
2018-12-24T02:08:22.721Z,11.30
2018-12-24T02:08:53.928Z,10.45
2018-12-24T02:09:25.081Z,12.60
2018-12-24T02:09:56.280Z,15.58
2018-12-24T02:10:27.468Z,15.83
2018-12-24T02:10:58.613Z,15.85
2018-12-24T02:11:29.763Z,15.70
2018-12-24T02:12:00.915Z,17.15
2018-12-24T02:12:32.068Z,17.23
2018-12-24T02:13:03.214Z,16.35
2018-12-24T02:13:34.377Z,17.48
2018-12-24T02:14:05.579Z,18.40
2018-12-24T02:14:36.726Z,16.42
2018-12-24T02:15:07.924Z,16.37
2018-12-24T02:15:39.080Z,17.65
2018-12-24T02:16:10.236Z,16.70
2018-12-24T02:16:41.386Z,16.17
2018-12-24T02:17:12.534Z,14.25
2018-12-24T02:17:43.680Z,18.52
2018-12-24T02:18:14.990Z,16.10
2018-12-24T02:18:46.132Z,19.30
2018-12-24T02:19:17.279Z,18.48
2018-12-24T02:19:48.484Z,17.35
2018-12-24T02:20:19.631Z,17.87
2018-12-24T02:20:50.810Z,19.30
2018-12-24T02:21:22.105Z,19.27
2018-12-24T02:21:53.255Z,18.75
2018-12-24T02:22:24.406Z,17.45
2018-12-24T02:22:55.563Z,15.75
2018-12-24T02:23:26.720Z,15.98
2018-12-24T02:23:57.928Z,15.18
2018-12-24T02:24:29.092Z,15.40
2018-12-24T02:25:00.315Z,16.85
2018-12-24T02:25:31.527Z,16.20
2018-12-24T02:26:02.679Z,17.25
2018-12-24T02:26:33.869Z,15.55
2018-12-24T02:27:05.018Z,18.30
2018-12-24T02:27:36.173Z,19.52
2018-12-24T02:28:07.328Z,20.92
2018-12-24T02:28:38.483Z,19.27
2018-12-24T02:29:09.637Z,21.55
2018-12-24T02:29:40.803Z,20.70
2018-12-24T02:30:11.974Z,23.18
2018-12-24T02:30:43.127Z,21.52
2018-12-24T02:31:14.282Z,22.55
2018-12-24T02:31:45.480Z,23.27
2018-12-24T02:32:16.624Z,24.18
2018-12-24T02:32:47.786Z,25.00
2018-12-24T02:33:18.955Z,20.15
2018-12-24T02:33:50.102Z,18.65
2018-12-24T02:34:21.243Z,19.00
2018-12-24T02:34:52.400Z,17.73
2018-12-24T02:35:23.558Z,19.17
2018-12-24T02:35:54.706Z,17.92
2018-12-24T02:36:25.850Z,18.32
2018-12-24T02:36:57.058Z,16.90
2018-12-24T02:37:28.206Z,17.60
2018-12-24T02:37:59.357Z,17.77
2018-12-24T02:38:30.515Z,17.32
2018-12-24T02:39:01.798Z,15.25
2018-12-24T02:39:32.993Z,14.33
2018-12-24T02:40:04.142Z,15.68
2018-12-24T02:40:35.353Z,16.75
2018-12-24T02:41:06.504Z,18.27
2018-12-24T02:41:37.652Z,15.63
2018-12-24T02:42:08.856Z,15.72
2018-12-24T02:42:40.002Z,17.23
2018-12-24T02:43:11.144Z,18.30
2018-12-24T02:43:42.299Z,18.73
2018-12-24T02:44:13.456Z,17.65
2018-12-24T02:44:44.609Z,17.10
2018-12-24T02:45:15.818Z,18.23
2018-12-24T02:45:46.975Z,18.90
2018-12-24T02:46:18.128Z,18.32
2018-12-24T02:46:49.281Z,17.10
2018-12-24T02:47:20.488Z,18.48
2018-12-24T02:47:51.636Z,20.45
2018-12-24T02:48:22.784Z,20.15
2018-12-24T02:48:53.935Z,22.30
2018-12-24T02:49:25.089Z,18.25
2018-12-24T02:49:56.243Z,15.68
2018-12-24T02:50:27.397Z,14.15
2018-12-24T02:50:58.553Z,15.68
2018-12-24T02:51:29.713Z,15.50
2018-12-24T02:52:00.861Z,15.78
2018-12-24T02:52:32.059Z,17.75
2018-12-24T02:53:03.204Z,16.10
2018-12-24T02:53:34.372Z,16.20
2018-12-24T02:54:05.508Z,17.32
2018-12-24T02:54:36.648Z,14.95
2018-12-24T02:55:07.796Z,18.15
2018-12-24T02:55:38.987Z,17.25
2018-12-24T02:56:10.138Z,17.23
2018-12-24T02:56:41.286Z,16.00
2018-12-24T02:57:12.436Z,16.65
2018-12-24T02:57:44.859Z,17.27
2018-12-24T02:58:15.934Z,16.85
2018-12-24T02:58:47.097Z,16.37
2018-12-24T02:59:18.245Z,16.65
2018-12-24T02:59:49.457Z,16.80
2018-12-24T03:00:20.600Z,19.23
2018-12-24T03:00:51.743Z,16.95
2018-12-24T03:01:22.914Z,17.23
2018-12-24T03:01:54.057Z,18.12
2018-12-24T03:02:25.207Z,17.85
2018-12-24T03:02:56.365Z,18.02
2018-12-24T03:03:27.513Z,17.50
2018-12-24T03:03:58.706Z,17.02
2018-12-24T03:04:29.872Z,19.87
2018-12-24T03:05:01.026Z,16.62
2018-12-24T03:05:32.186Z,16.20
2018-12-24T03:06:03.323Z,16.93
2018-12-24T03:06:34.493Z,16.37
2018-12-24T03:07:05.702Z,16.62
2018-12-24T03:07:36.847Z,16.93
2018-12-24T03:08:08.001Z,17.07
2018-12-24T03:08:39.150Z,17.85
2018-12-24T03:09:10.300Z,16.37
2018-12-24T03:09:41.453Z,17.77
2018-12-24T03:10:12.610Z,18.40
2018-12-24T03:10:43.829Z,18.05
2018-12-24T03:11:14.977Z,16.97
2018-12-24T03:11:46.122Z,19.52
2018-12-24T03:12:17.319Z,18.27
2018-12-24T03:12:48.474Z,18.92
2018-12-24T03:13:19.619Z,18.60
2018-12-24T03:13:50.803Z,16.95
2018-12-24T03:14:21.947Z,15.40
2018-12-24T03:14:53.085Z,18.67
2018-12-24T03:15:24.239Z,19.05
2018-12-24T03:15:55.408Z,17.12
2018-12-24T03:16:26.553Z,15.05
2018-12-24T03:16:57.709Z,16.37
2018-12-24T03:17:28.904Z,17.32
2018-12-24T03:18:00.059Z,17.37
2018-12-24T03:18:31.201Z,16.95
2018-12-24T03:19:02.361Z,17.55
2018-12-24T03:19:33.503Z,16.65
2018-12-24T03:20:04.655Z,14.83
2018-12-24T03:20:35.805Z,15.48
2018-12-24T03:21:06.964Z,13.95
2018-12-24T03:21:38.163Z,14.98
2018-12-24T03:22:09.316Z,16.95
2018-12-24T03:22:40.489Z,16.85
2018-12-24T03:23:11.615Z,13.40
2018-12-24T03:23:42.787Z,16.32
2018-12-24T03:24:13.934Z,17.52
2018-12-24T03:24:45.075Z,14.95
2018-12-24T03:25:16.279Z,16.10
2018-12-24T03:25:47.433Z,13.98
2018-12-24T03:26:18.573Z,15.95
2018-12-24T03:26:49.725Z,15.10
2018-12-24T03:27:20.881Z,14.18
2018-12-24T03:27:52.026Z,14.38
2018-12-24T03:28:23.182Z,12.33
2018-12-24T03:28:54.371Z,14.10
2018-12-24T03:29:25.532Z,15.55
2018-12-24T03:29:56.688Z,17.07
2018-12-24T03:30:27.844Z,17.48
2018-12-24T03:31:00.783Z,22.70
2018-12-24T03:31:35.019Z,21.90
2018-12-24T03:32:06.174Z,20.30
2018-12-24T03:32:37.338Z,21.95
2018-12-24T03:33:08.476Z,19.62
2018-12-24T03:33:39.627Z,16.52
2018-12-24T03:34:10.823Z,14.87
2018-12-24T03:34:41.963Z,15.08
2018-12-24T03:35:13.105Z,11.70
2018-12-24T03:35:44.270Z,12.58
2018-12-24T03:36:15.403Z,13.72
2018-12-24T03:36:46.546Z,11.65
2018-12-24T03:37:17.700Z,13.60
2018-12-24T03:37:48.895Z,12.45
2018-12-24T03:38:20.063Z,14.15
2018-12-24T03:38:51.217Z,15.13
2018-12-24T03:39:22.348Z,13.03
2018-12-24T03:39:53.531Z,11.55
2018-12-24T03:40:24.750Z,10.65
2018-12-24T03:40:55.895Z,8.45
2018-12-24T03:41:27.054Z,10.23
2018-12-24T03:41:58.193Z,10.60
2018-12-24T03:42:29.462Z,10.72
2018-12-24T03:43:00.710Z,10.43
2018-12-24T03:43:31.851Z,9.53
2018-12-24T03:44:03.059Z,11.70
2018-12-24T03:44:34.251Z,12.78
2018-12-24T03:45:05.412Z,11.93
2018-12-24T03:45:36.565Z,13.08
2018-12-24T03:46:07.714Z,10.95
2018-12-24T03:46:38.866Z,11.83
2018-12-24T03:47:10.161Z,11.48
2018-12-24T03:47:41.313Z,13.40
2018-12-24T03:48:12.487Z,17.80
2018-12-24T03:48:43.695Z,16.30
2018-12-24T03:49:14.853Z,16.97
2018-12-24T03:49:46.001Z,13.68
2018-12-24T03:50:17.157Z,18.57
2018-12-24T03:50:48.307Z,25.40
2018-12-24T03:51:19.469Z,17.62
2018-12-24T03:51:50.632Z,17.00
2018-12-24T03:52:21.820Z,16.70
2018-12-24T03:52:53.027Z,15.03
2018-12-24T03:53:24.186Z,14.25
2018-12-24T03:53:55.389Z,17.98
2018-12-24T03:54:26.537Z,16.50
2018-12-24T03:54:57.686Z,13.13
2018-12-24T03:55:28.835Z,16.70
2018-12-24T03:55:59.987Z,16.50
2018-12-24T03:56:31.132Z,18.00
2018-12-24T03:57:02.277Z,16.27
2018-12-24T03:57:33.420Z,16.30
2018-12-24T03:58:04.573Z,16.80
2018-12-24T03:58:35.728Z,20.05
2018-12-24T03:59:06.936Z,18.27
2018-12-24T03:59:39.400Z,18.15
2018-12-24T04:00:10.496Z,19.30
2018-12-24T04:00:41.656Z,20.40
2018-12-24T04:01:12.799Z,19.50
2018-12-24T04:01:43.952Z,18.23
2018-12-24T04:02:15.097Z,18.35
2018-12-24T04:02:46.239Z,20.65
2018-12-24T04:03:17.389Z,20.77
2018-12-24T04:03:48.540Z,17.75
2018-12-24T04:04:19.730Z,16.87
2018-12-24T04:04:50.874Z,18.77
2018-12-24T04:05:22.177Z,17.65
2018-12-24T04:05:53.259Z,17.95
2018-12-24T04:06:24.402Z,20.50
2018-12-24T04:06:55.563Z,19.80
2018-12-24T04:07:26.712Z,17.00
2018-12-24T04:07:58.030Z,20.40
2018-12-24T04:08:29.194Z,20.68
2018-12-24T04:09:00.341Z,21.97
2018-12-24T04:09:31.549Z,20.95
2018-12-24T04:10:02.695Z,20.43
2018-12-24T04:10:33.828Z,22.98
2018-12-24T04:11:04.974Z,18.20
2018-12-24T04:11:36.136Z,21.93
2018-12-24T04:12:07.287Z,18.32
2018-12-24T04:12:38.430Z,20.23
2018-12-24T04:13:09.589Z,20.65
2018-12-24T04:13:40.740Z,19.73
2018-12-24T04:14:11.948Z,19.70
2018-12-24T04:14:43.104Z,19.77
2018-12-24T04:15:14.280Z,20.90
2018-12-24T04:15:45.593Z,20.20
2018-12-24T04:16:16.692Z,20.45
2018-12-24T04:16:47.850Z,23.80
2018-12-24T04:17:19.003Z,20.75
2018-12-24T04:17:50.200Z,21.45
2018-12-24T04:18:21.362Z,19.92
2018-12-24T04:18:52.554Z,21.75
2018-12-24T04:19:23.703Z,21.75
2018-12-24T04:19:54.899Z,23.77
2018-12-24T04:20:26.055Z,22.02
2018-12-24T04:20:57.217Z,20.62
2018-12-24T04:21:28.373Z,20.43
2018-12-24T04:22:02.288Z,21.23
2018-12-24T04:22:33.445Z,22.02
2018-12-24T04:23:04.600Z,23.87
2018-12-24T04:23:35.756Z,21.65
2018-12-24T04:24:06.903Z,22.58
2018-12-24T04:24:38.092Z,24.15
2018-12-24T04:25:09.267Z,22.25
2018-12-24T04:25:40.399Z,23.07
2018-12-24T04:26:11.559Z,25.80
2018-12-24T04:26:42.715Z,27.85
2018-12-24T04:27:13.874Z,26.15
2018-12-24T04:27:45.099Z,28.75
2018-12-24T04:28:16.293Z,28.50
2018-12-24T04:28:47.443Z,25.50
2018-12-24T04:29:18.596Z,23.05
2018-12-24T04:29:49.761Z,26.42
2018-12-24T04:30:20.917Z,23.47
2018-12-24T04:30:52.057Z,25.52
2018-12-24T04:31:23.213Z,25.35
2018-12-24T04:31:54.368Z,22.93
2018-12-24T04:32:25.510Z,25.82
2018-12-24T04:32:56.655Z,22.95
2018-12-24T04:33:27.852Z,25.10
2018-12-24T04:33:59.023Z,26.00
2018-12-24T04:34:30.174Z,26.07
2018-12-24T04:35:01.334Z,24.87
2018-12-24T04:35:32.485Z,27.00
2018-12-24T04:36:03.637Z,27.42
2018-12-24T04:36:34.788Z,23.27
2018-12-24T04:37:05.936Z,22.30
2018-12-24T04:37:37.091Z,25.17
2018-12-24T04:38:08.239Z,20.70
2018-12-24T04:38:39.429Z,22.48
2018-12-24T04:39:10.584Z,19.15
2018-12-24T04:39:41.731Z,21.15
2018-12-24T04:40:12.889Z,21.10
2018-12-24T04:40:44.053Z,22.70
2018-12-24T04:41:15.221Z,22.48
2018-12-24T04:41:46.384Z,22.22
2018-12-24T04:42:17.584Z,21.95
2018-12-24T04:42:48.739Z,19.98
2018-12-24T04:43:19.890Z,18.00
2018-12-24T04:43:51.037Z,18.05
2018-12-24T04:44:22.183Z,18.23
2018-12-24T04:44:53.339Z,22.80
2018-12-24T04:45:24.487Z,18.20
2018-12-24T04:45:55.631Z,17.23
2018-12-24T04:46:26.774Z,18.95
2018-12-24T04:46:57.931Z,16.87
2018-12-24T04:47:29.124Z,16.32
2018-12-24T04:48:00.275Z,19.67
2018-12-24T04:48:31.436Z,18.82
2018-12-24T04:49:02.577Z,18.42
2018-12-24T04:49:33.729Z,18.45
2018-12-24T04:50:04.933Z,19.45
2018-12-24T04:50:36.074Z,18.20
2018-12-24T04:51:07.232Z,18.27
2018-12-24T04:51:38.385Z,19.95
2018-12-24T04:52:09.539Z,22.27
2018-12-24T04:52:40.698Z,23.60
2018-12-24T04:53:11.855Z,20.25
2018-12-24T04:53:43.010Z,21.17
2018-12-24T04:54:14.160Z,21.95
2018-12-24T04:54:45.400Z,23.25
2018-12-24T04:55:18.031Z,28.12
2018-12-24T04:55:49.178Z,25.00
2018-12-24T04:56:20.323Z,25.65
2018-12-24T04:56:51.481Z,26.52
2018-12-24T04:57:22.676Z,25.08
2018-12-24T04:57:53.823Z,24.90
2018-12-24T04:58:24.994Z,24.30
2018-12-24T04:58:56.154Z,23.32
2018-12-24T04:59:27.310Z,23.80
2018-12-24T04:59:58.460Z,24.20
2018-12-24T05:00:29.603Z,22.17
2018-12-24T05:01:00.810Z,25.25
2018-12-24T05:01:31.961Z,23.62
2018-12-24T05:02:03.118Z,23.62
2018-12-24T05:02:34.268Z,22.27
2018-12-24T05:03:05.417Z,20.50
2018-12-24T05:03:36.571Z,17.98
2018-12-24T05:04:07.717Z,21.50
2018-12-24T05:04:38.884Z,20.60
2018-12-24T05:05:10.038Z,20.30
2018-12-24T05:05:41.183Z,19.87
2018-12-24T05:06:12.361Z,20.30
2018-12-24T05:06:43.557Z,20.82
2018-12-24T05:07:14.711Z,21.42
2018-12-24T05:07:45.865Z,21.60
2018-12-24T05:08:17.008Z,21.05
2018-12-24T05:08:48.161Z,21.65
2018-12-24T05:09:19.319Z,22.25
2018-12-24T05:09:50.460Z,22.75
2018-12-24T05:10:21.684Z,25.82
2018-12-24T05:10:52.875Z,22.70
2018-12-24T05:11:24.047Z,20.70
2018-12-24T05:11:55.241Z,20.43
2018-12-24T05:12:26.393Z,22.55
2018-12-24T05:12:57.561Z,20.80
2018-12-24T05:13:28.710Z,21.05
2018-12-24T05:13:59.849Z,18.37
2018-12-24T05:14:31.004Z,19.12
2018-12-24T05:15:02.157Z,20.20
2018-12-24T05:15:33.315Z,19.02
2018-12-24T05:16:04.462Z,19.35
2018-12-24T05:16:35.613Z,21.07
2018-12-24T05:17:06.792Z,18.17
2018-12-24T05:17:37.952Z,18.82
2018-12-24T05:18:09.104Z,17.37
2018-12-24T05:18:40.260Z,22.87
2018-12-24T05:19:11.536Z,18.27
2018-12-24T05:19:42.694Z,20.08
2018-12-24T05:20:13.853Z,17.80
2018-12-24T05:20:45.001Z,16.30
2018-12-24T05:21:16.192Z,19.73
2018-12-24T05:21:47.345Z,20.70
2018-12-24T05:22:18.501Z,18.95
2018-12-24T05:22:49.660Z,18.90
2018-12-24T05:23:20.848Z,20.12
2018-12-24T05:23:51.996Z,21.77
2018-12-24T05:24:23.197Z,18.73
2018-12-24T05:24:54.356Z,20.10
2018-12-24T05:25:25.500Z,19.52
2018-12-24T05:25:56.645Z,21.48
2018-12-24T05:26:27.787Z,20.00
2018-12-24T05:26:58.988Z,20.25
2018-12-24T05:27:30.127Z,19.73
2018-12-24T05:28:01.276Z,18.90
2018-12-24T05:28:32.423Z,20.10
2018-12-24T05:29:03.581Z,20.15
2018-12-24T05:29:34.786Z,21.07
2018-12-24T05:30:05.925Z,21.45
2018-12-24T05:30:37.080Z,23.32
2018-12-24T05:31:08.230Z,24.32
2018-12-24T05:31:39.378Z,23.25
2018-12-24T05:32:10.537Z,24.10
2018-12-24T05:32:41.680Z,22.22
2018-12-24T05:33:12.843Z,22.07
2018-12-24T05:33:44.061Z,22.55
2018-12-24T05:34:15.172Z,23.25
2018-12-24T05:34:46.321Z,22.62
2018-12-24T05:35:17.470Z,21.82
2018-12-24T05:35:48.679Z,22.45
2018-12-24T05:36:19.823Z,26.70
2018-12-24T05:36:51.021Z,26.10
2018-12-24T05:37:22.168Z,25.08
2018-12-24T05:37:53.315Z,21.97
2018-12-24T05:38:24.454Z,23.52
2018-12-24T05:38:55.597Z,21.97
2018-12-24T05:39:26.744Z,19.40
2018-12-24T05:39:57.895Z,25.15
2018-12-24T05:40:29.050Z,22.85
2018-12-24T05:41:00.206Z,21.27
2018-12-24T05:41:31.358Z,17.60
2018-12-24T05:42:02.563Z,17.75
2018-12-24T05:42:33.705Z,19.15
2018-12-24T05:43:04.852Z,18.82
2018-12-24T05:43:36.029Z,21.12
2018-12-24T05:44:07.190Z,19.02
2018-12-24T05:44:38.343Z,19.45
2018-12-24T05:45:09.493Z,20.62
2018-12-24T05:45:40.640Z,19.25
2018-12-24T05:46:11.787Z,18.45
2018-12-24T05:46:42.942Z,20.68
2018-12-24T05:47:14.133Z,18.23
2018-12-24T05:47:45.304Z,20.23
2018-12-24T05:48:16.456Z,18.25
2018-12-24T05:48:47.618Z,18.50
2018-12-24T05:49:18.751Z,21.73
2018-12-24T05:49:49.934Z,19.05
2018-12-24T05:50:21.091Z,21.62
2018-12-24T05:50:52.254Z,20.60
2018-12-24T05:51:25.164Z,21.93
2018-12-24T05:51:56.366Z,24.32
2018-12-24T05:52:27.517Z,26.50
2018-12-24T05:52:58.657Z,24.37
2018-12-24T05:53:29.806Z,25.40
2018-12-24T05:54:00.960Z,24.15
2018-12-24T05:54:32.105Z,27.90
2018-12-24T05:55:03.246Z,24.37
2018-12-24T05:55:34.396Z,23.90
2018-12-24T05:56:05.544Z,26.45
2018-12-24T05:56:36.744Z,22.90
2018-12-24T05:57:07.894Z,21.87
2018-12-24T05:57:39.055Z,22.48
2018-12-24T05:58:10.207Z,23.35
2018-12-24T05:58:41.365Z,23.10
2018-12-24T05:59:12.558Z,22.37
2018-12-24T05:59:43.709Z,25.80
2018-12-24T06:00:14.864Z,22.80
2018-12-24T06:00:46.066Z,21.95
2018-12-24T06:01:17.222Z,24.20
2018-12-24T06:01:48.370Z,20.05
2018-12-24T06:02:19.527Z,23.85
2018-12-24T06:02:50.671Z,25.05
2018-12-24T06:03:21.821Z,23.10
2018-12-24T06:03:52.971Z,20.02
2018-12-24T06:04:24.177Z,19.57
2018-12-24T06:04:55.333Z,20.92
2018-12-24T06:05:26.492Z,20.43
2018-12-24T06:05:57.643Z,20.88
2018-12-24T06:06:28.803Z,22.50
2018-12-24T06:06:59.954Z,21.93
2018-12-24T06:07:31.100Z,22.42
2018-12-24T06:08:02.251Z,23.32
2018-12-24T06:08:33.452Z,21.27
2018-12-24T06:09:04.599Z,25.08
2018-12-24T06:09:35.756Z,23.75
2018-12-24T06:10:06.912Z,21.27
2018-12-24T06:10:38.067Z,22.30
2018-12-24T06:11:09.223Z,22.82
2018-12-24T06:11:40.365Z,24.43
2018-12-24T06:12:11.518Z,22.70
2018-12-24T06:12:42.754Z,22.70
2018-12-24T06:13:13.924Z,23.00
2018-12-24T06:13:45.128Z,24.15
2018-12-24T06:14:16.285Z,22.27
2018-12-24T06:14:47.427Z,24.02
2018-12-24T06:15:18.593Z,24.10
2018-12-24T06:15:49.740Z,23.73
2018-12-24T06:16:20.889Z,24.77
2018-12-24T06:16:52.043Z,23.10
2018-12-24T06:17:23.218Z,23.95
2018-12-24T06:17:54.374Z,23.42
2018-12-24T06:18:25.526Z,23.27
2018-12-24T06:18:56.709Z,23.55
2018-12-24T06:19:27.863Z,24.20
2018-12-24T06:19:59.004Z,25.45
2018-12-24T06:20:37.531Z,24.43
2018-12-24T06:21:03.021Z,25.50
2018-12-24T06:21:34.182Z,25.48
2018-12-24T06:22:05.332Z,23.50
2018-12-24T06:22:39.074Z,26.25
2018-12-24T06:23:10.230Z,25.52
2018-12-24T06:23:41.422Z,24.80
2018-12-24T06:24:12.617Z,23.07
2018-12-24T06:24:43.781Z,26.35
2018-12-24T06:25:14.939Z,26.25
2018-12-24T06:25:46.110Z,23.50
2018-12-24T06:26:17.271Z,24.87
2018-12-24T06:26:48.424Z,27.42
2018-12-24T06:27:19.582Z,25.35
2018-12-24T06:27:50.736Z,25.80
2018-12-24T06:28:21.922Z,27.52
2018-12-24T06:28:54.415Z,24.63
2018-12-24T06:29:26.786Z,23.47
2018-12-24T06:29:57.945Z,25.05
2018-12-24T06:30:29.144Z,22.37
2018-12-24T06:31:00.305Z,26.05
2018-12-24T06:31:31.782Z,24.23
2018-12-24T06:32:02.959Z,25.37
2018-12-24T06:32:34.116Z,23.70
2018-12-24T06:33:05.278Z,23.65
2018-12-24T06:33:36.493Z,21.85
2018-12-24T06:34:07.679Z,23.45
2018-12-24T06:34:38.806Z,23.70
2018-12-24T06:35:09.987Z,24.82
2018-12-24T06:35:41.138Z,25.68
2018-12-24T06:36:12.337Z,26.20
2018-12-24T06:36:43.512Z,24.07
2018-12-24T06:37:14.741Z,26.40
2018-12-24T06:37:45.906Z,26.73
2018-12-24T06:38:17.055Z,28.02
2018-12-24T06:38:48.207Z,29.82
2018-12-24T06:39:19.366Z,31.23
2018-12-24T06:39:50.570Z,33.00
2018-12-24T06:40:21.722Z,30.17
2018-12-24T06:40:52.877Z,34.20
2018-12-24T06:41:24.029Z,31.90
2018-12-24T06:41:55.180Z,35.23
2018-12-24T06:42:26.342Z,34.03
2018-12-24T06:42:57.489Z,35.92
2018-12-24T06:43:28.633Z,31.50